PWSweather.com
Personal Weather Stations
Station Observations
KNVELKO7
Elko, NV 89801

Elko, NV 89801

Lat: 40.963233, Lon: -115.592836

Elevation: 5230

Station Type: WS-2812

High Low Average
Temperature 25.6°F-3.6°F 2.0°F-16.7°F 12.4°F-10.9°F
Dew Point 20.3°F-6.5°F -3.1°F-19.5°F 7.5°F-13.6°F
Winds 8.8 mph NNE14.2 mph NNE Calm Calm 3.7 mph 6.0 mph
Wind Gusts 10.1 mph16.3 mph -- 5.1 mph8.2 mph
Humidity 87% 71% 81%
Pressure 30.28 in1025.40 in 30.16 in1021.30 in -
Precipitation 0.00 in0.00 in - -
Hour Temp Dew Point Humidity Winds Wind Gusts Pressure Precip Precip Rate Daily Precip Total
12:01 AM 13.3°F-10.4°C 9.6°F-12.4°C 85% 6.7 mph NNE10.8 kmh NNE 7.6 mph12.2 kmh 30.25 in1024.4 mb 0.00 in0.0 mm 0.00 in0.0 mm 0.00 in0.0 mm
12:06 AM 12.8°F-10.7°C 9.1°F-12.7°C 85% 5.9 mph NE9.5 kmh NE 7.6 mph12.2 kmh 30.25 in1024.4 mb 0.00 in0.0 mm 0.00 in0.0 mm 0.00 in0.0 mm
12:11 AM 12.6°F-10.8°C 8.9°F-12.8°C 85% 6.4 mph NNE10.3 kmh NNE 8.3 mph13.4 kmh 30.25 in1024.4 mb 0.00 in0.0 mm 0.00 in0.0 mm 0.00 in0.0 mm
12:16 AM 12.6°F-10.8°C 9.2°F-12.7°C 86% 6.2 mph N10.0 kmh N 8.5 mph13.7 kmh 30.25 in1024.4 mb 0.00 in0.0 mm 0.00 in0.0 mm 0.00 in0.0 mm
12:21 AM 12.6°F-10.8°C 9.2°F-12.7°C 86% 8.1 mph NNW13.0 kmh NNW 8.5 mph13.7 kmh 30.25 in1024.4 mb 0.00 in0.0 mm 0.00 in0.0 mm 0.00 in0.0 mm
12:26 AM 12.6°F-10.8°C 9.2°F-12.7°C 86% 8.1 mph NNW13.0 kmh NNW 8.3 mph13.4 kmh 30.25 in1024.4 mb 0.00 in0.0 mm 0.00 in0.0 mm 0.00 in0.0 mm
12:31 AM 12.6°F-10.8°C 9.2°F-12.7°C 86% 8.1 mph NNW13.0 kmh NNW 8.1 mph13.0 kmh 30.25 in1024.4 mb 0.00 in0.0 mm 0.00 in0.0 mm 0.00 in0.0 mm
12:37 AM 12.4°F-10.9°C 9.0°F-12.8°C 86% 4.9 mph 7.9 kmh 8.1 mph13.0 kmh 30.25 in1024.4 mb 0.00 in0.0 mm 0.00 in0.0 mm 0.00 in0.0 mm
12:41 AM 12.6°F-10.8°C 9.2°F-12.7°C 86% 5.3 mph NNE8.5 kmh NNE 8.1 mph13.0 kmh 30.25 in1024.4 mb 0.00 in0.0 mm 0.00 in0.0 mm 0.00 in0.0 mm
12:46 AM 12.6°F-10.8°C 9.2°F-12.7°C 86% 2.9 mph NNE4.7 kmh NNE 6.0 mph9.7 kmh 30.25 in1024.4 mb 0.00 in0.0 mm 0.00 in0.0 mm 0.00 in0.0 mm
12:51 AM 12.6°F-10.8°C 9.2°F-12.7°C 86% 2.1 mph NNE3.4 kmh NNE 4.7 mph7.6 kmh 30.25 in1024.4 mb 0.00 in0.0 mm 0.00 in0.0 mm 0.00 in0.0 mm
12:56 AM 12.8°F-10.7°C 9.4°F-12.6°C 86% 1.2 mph 1.9 kmh 2.9 mph4.7 kmh 30.25 in1024.4 mb 0.00 in0.0 mm 0.00 in0.0 mm 0.00 in0.0 mm
01:02 AM 13.0°F-10.6°C 9.5°F-12.5°C 86% 2.8 mph N4.5 kmh N 4.0 mph6.4 kmh 30.25 in1024.4 mb 0.00 in0.0 mm 0.00 in0.0 mm 0.00 in0.0 mm
01:07 AM 13.0°F-10.6°C 9.5°F-12.5°C 86% 4.1 mph 6.6 kmh 4.5 mph7.2 kmh 30.25 in1024.4 mb 0.00 in0.0 mm 0.00 in0.0 mm 0.00 in0.0 mm
01:12 AM 13.0°F-10.6°C 9.5°F-12.5°C 86% 2.3 mph 3.7 kmh 4.5 mph7.2 kmh 30.25 in1024.4 mb 0.00 in0.0 mm 0.00 in0.0 mm 0.00 in0.0 mm
01:16 AM 13.0°F-10.6°C 9.5°F-12.5°C 86% 2.3 mph 3.7 kmh 4.9 mph7.9 kmh 30.25 in1024.4 mb 0.00 in0.0 mm 0.00 in0.0 mm 0.00 in0.0 mm
01:21 AM 13.0°F-10.6°C 9.5°F-12.5°C 86% 2.3 mph NW3.7 kmh NW 4.9 mph7.9 kmh 30.25 in1024.4 mb 0.00 in0.0 mm 0.00 in0.0 mm 0.00 in0.0 mm
01:26 AM 13.1°F-10.5°C 9.7°F-12.4°C 86% 4.1 mph NNW6.6 kmh NNW 4.7 mph7.6 kmh 30.25 in1024.4 mb 0.00 in0.0 mm 0.00 in0.0 mm 0.00 in0.0 mm
01:31 AM 13.0°F-10.6°C 9.5°F-12.5°C 86% 3.1 mph NNW5.0 kmh NNW 4.7 mph7.6 kmh 30.25 in1024.4 mb 0.00 in0.0 mm 0.00 in0.0 mm 0.00 in0.0 mm
01:36 AM 13.0°F-10.6°C 9.5°F-12.5°C 86% 2.8 mph NNW4.5 kmh NNW 4.0 mph6.4 kmh 30.25 in1024.4 mb 0.00 in0.0 mm 0.00 in0.0 mm 0.00 in0.0 mm
01:41 AM 13.0°F-10.6°C 9.5°F-12.5°C 86% 3.0 mph NNW4.8 kmh NNW 3.6 mph5.8 kmh 30.24 in1024.0 mb 0.00 in0.0 mm 0.00 in0.0 mm 0.00 in0.0 mm
01:46 AM 13.0°F-10.6°C 9.5°F-12.5°C 86% 2.6 mph NNW4.2 kmh NNW 4.3 mph6.9 kmh 30.25 in1024.4 mb 0.00 in0.0 mm 0.00 in0.0 mm 0.00 in0.0 mm
01:51 AM 12.8°F-10.7°C 9.4°F-12.6°C 86% 2.4 mph NNW3.9 kmh NNW 4.3 mph6.9 kmh 30.25 in1024.4 mb 0.00 in0.0 mm 0.00 in0.0 mm 0.00 in0.0 mm
01:56 AM 13.0°F-10.6°C 9.5°F-12.5°C 86% 4.0 mph NNW6.4 kmh NNW 4.0 mph6.4 kmh 30.25 in1024.4 mb 0.00 in0.0 mm 0.00 in0.0 mm 0.00 in0.0 mm
02:02 AM 13.0°F-10.6°C 9.5°F-12.5°C 86% 4.3 mph N6.9 kmh N 5.6 mph9.0 kmh 30.25 in1024.4 mb 0.00 in0.0 mm 0.00 in0.0 mm 0.00 in0.0 mm
02:07 AM 13.0°F-10.6°C 9.5°F-12.5°C 86% 4.6 mph N7.4 kmh N 5.6 mph9.0 kmh 30.25 in1024.4 mb 0.00 in0.0 mm 0.00 in0.0 mm 0.00 in0.0 mm
02:12 AM 13.0°F-10.6°C 9.5°F-12.5°C 86% 2.8 mph 4.5 kmh 4.7 mph7.6 kmh 30.25 in1024.4 mb 0.00 in0.0 mm 0.00 in0.0 mm 0.00 in0.0 mm
02:17 AM 12.8°F-10.7°C 9.4°F-12.6°C 86% 6.9 mph 11.1 kmh 7.6 mph12.2 kmh 30.25 in1024.4 mb 0.00 in0.0 mm 0.00 in0.0 mm 0.00 in0.0 mm
02:22 AM 12.4°F-10.9°C 9.0°F-12.8°C 86% 4.2 mph NNE6.8 kmh NNE 7.6 mph12.2 kmh 30.25 in1024.4 mb 0.00 in0.0 mm 0.00 in0.0 mm 0.00 in0.0 mm
02:27 AM 12.2°F-11.0°C 8.8°F-12.9°C 86% 3.5 mph 5.6 kmh 6.7 mph10.8 kmh 30.24 in1024.0 mb 0.00 in0.0 mm 0.00 in0.0 mm 0.00 in0.0 mm
02:32 AM 12.2°F-11.0°C 8.8°F-12.9°C 86% 4.7 mph 7.6 kmh 5.4 mph8.7 kmh 30.24 in1024.0 mb 0.00 in0.0 mm 0.00 in0.0 mm 0.00 in0.0 mm
02:37 AM 12.2°F-11.0°C 8.8°F-12.9°C 86% 5.2 mph 8.4 kmh 5.4 mph8.7 kmh 30.24 in1024.0 mb 0.00 in0.0 mm 0.00 in0.0 mm 0.00 in0.0 mm
02:42 AM 12.2°F-11.0°C 8.8°F-12.9°C 86% 3.7 mph N6.0 kmh N 5.4 mph8.7 kmh 30.24 in1024.0 mb 0.00 in0.0 mm 0.00 in0.0 mm 0.00 in0.0 mm
02:46 AM 12.2°F-11.0°C 8.8°F-12.9°C 86% 5.1 mph 8.2 kmh 6.3 mph10.1 kmh 30.24 in1024.0 mb 0.00 in0.0 mm 0.00 in0.0 mm 0.00 in0.0 mm
02:51 AM 12.2°F-11.0°C 8.8°F-12.9°C 86% 4.3 mph 6.9 kmh 6.3 mph10.1 kmh 30.24 in1024.0 mb 0.00 in0.0 mm 0.00 in0.0 mm 0.00 in0.0 mm
02:56 AM 12.2°F-11.0°C 8.8°F-12.9°C 86% 3.3 mph NE5.3 kmh NE 4.9 mph7.9 kmh 30.24 in1024.0 mb 0.00 in0.0 mm 0.00 in0.0 mm 0.00 in0.0 mm
03:02 AM 12.2°F-11.0°C 8.8°F-12.9°C 86% 3.2 mph NNE5.1 kmh NNE 4.0 mph6.4 kmh 30.24 in1024.0 mb 0.00 in0.0 mm 0.00 in0.0 mm 0.00 in0.0 mm
03:07 AM 12.2°F-11.0°C 8.8°F-12.9°C 86% 2.2 mph N3.5 kmh N 4.5 mph7.2 kmh 30.24 in1024.0 mb 0.00 in0.0 mm 0.00 in0.0 mm 0.00 in0.0 mm
03:12 AM 12.4°F-10.9°C 9.0°F-12.8°C 86% 2.9 mph NNE4.7 kmh NNE 4.5 mph7.2 kmh 30.24 in1024.0 mb 0.00 in0.0 mm 0.00 in0.0 mm 0.00 in0.0 mm
03:17 AM 12.4°F-10.9°C 9.0°F-12.8°C 86% 2.2 mph N3.5 kmh N 2.9 mph4.7 kmh 30.23 in1023.7 mb 0.00 in0.0 mm 0.00 in0.0 mm 0.00 in0.0 mm
03:22 AM 12.4°F-10.9°C 9.0°F-12.8°C 86% 2.9 mph 4.7 kmh 3.6 mph5.8 kmh 30.24 in1024.0 mb 0.00 in0.0 mm 0.00 in0.0 mm 0.00 in0.0 mm
03:27 AM 12.6°F-10.8°C 9.2°F-12.7°C 86% 3.2 mph N5.1 kmh N 4.0 mph6.4 kmh 30.24 in1024.0 mb 0.00 in0.0 mm 0.00 in0.0 mm 0.00 in0.0 mm
03:32 AM 12.6°F-10.8°C 9.2°F-12.7°C 86% 4.5 mph 7.2 kmh 5.4 mph8.7 kmh 30.23 in1023.7 mb 0.00 in0.0 mm 0.00 in0.0 mm 0.00 in0.0 mm
03:37 AM 12.6°F-10.8°C 9.2°F-12.7°C 86% 4.0 mph N6.4 kmh N 5.4 mph8.7 kmh 30.23 in1023.7 mb 0.00 in0.0 mm 0.00 in0.0 mm 0.00 in0.0 mm
03:42 AM 12.4°F-10.9°C 9.0°F-12.8°C 86% 4.3 mph NE6.9 kmh NE 4.7 mph7.6 kmh 30.23 in1023.7 mb 0.00 in0.0 mm 0.00 in0.0 mm 0.00 in0.0 mm
03:47 AM 12.4°F-10.9°C 9.0°F-12.8°C 86% 6.3 mph 10.1 kmh 6.3 mph10.1 kmh 30.23 in1023.7 mb 0.00 in0.0 mm 0.00 in0.0 mm 0.00 in0.0 mm
03:52 AM 12.4°F-10.9°C 9.0°F-12.8°C 86% 6.3 mph 10.1 kmh 6.3 mph10.1 kmh 30.23 in1023.7 mb 0.00 in0.0 mm 0.00 in0.0 mm 0.00 in0.0 mm
03:57 AM 12.4°F-10.9°C 9.0°F-12.8°C 86% 6.3 mph 10.1 kmh 6.3 mph10.1 kmh 30.23 in1023.7 mb 0.00 in0.0 mm 0.00 in0.0 mm 0.00 in0.0 mm
04:02 AM 11.7°F-11.3°C 8.3°F-13.2°C 86% 4.6 mph NNE7.4 kmh NNE 6.3 mph10.1 kmh 30.23 in1023.7 mb 0.00 in0.0 mm 0.00 in0.0 mm 0.00 in0.0 mm
04:07 AM 11.5°F-11.4°C 8.1°F-13.3°C 86% 5.9 mph N9.5 kmh N 7.6 mph12.2 kmh 30.23 in1023.7 mb 0.00 in0.0 mm 0.00 in0.0 mm 0.00 in0.0 mm
04:12 AM 11.2°F-11.6°C 7.7°F-13.5°C 86% 5.0 mph 8.0 kmh 7.6 mph12.2 kmh 30.23 in1023.7 mb 0.00 in0.0 mm 0.00 in0.0 mm 0.00 in0.0 mm
04:17 AM 11.0°F-11.7°C 7.6°F-13.6°C 86% 3.8 mph N6.1 kmh N 6.3 mph10.1 kmh 30.23 in1023.7 mb 0.00 in0.0 mm 0.00 in0.0 mm 0.00 in0.0 mm
04:22 AM 10.8°F-11.8°C 7.4°F-13.7°C 86% 3.3 mph 5.3 kmh 6.3 mph10.1 kmh 30.23 in1023.7 mb 0.00 in0.0 mm 0.00 in0.0 mm 0.00 in0.0 mm
04:27 AM 10.8°F-11.8°C 7.4°F-13.7°C 86% 2.6 mph N4.2 kmh N 5.6 mph9.0 kmh 30.23 in1023.7 mb 0.00 in0.0 mm 0.00 in0.0 mm 0.00 in0.0 mm
04:32 AM 10.8°F-11.8°C 7.7°F-13.5°C 87% 1.5 mph NNW2.4 kmh NNW 2.7 mph4.3 kmh 30.23 in1023.7 mb 0.00 in0.0 mm 0.00 in0.0 mm 0.00 in0.0 mm
04:36 AM 11.2°F-11.6°C 8.0°F-13.3°C 87% 2.1 mph NNW3.4 kmh NNW 2.7 mph4.3 kmh 30.23 in1023.7 mb 0.00 in0.0 mm 0.00 in0.0 mm 0.00 in0.0 mm
04:42 AM 11.2°F-11.6°C 8.0°F-13.3°C 87% 1.7 mph NNW2.7 kmh NNW 2.7 mph4.3 kmh 30.23 in1023.7 mb 0.00 in0.0 mm 0.00 in0.0 mm 0.00 in0.0 mm
04:47 AM 11.2°F-11.6°C 8.0°F-13.3°C 87% 1.8 mph NNW2.9 kmh NNW 1.8 mph2.9 kmh 30.23 in1023.7 mb 0.00 in0.0 mm 0.00 in0.0 mm 0.00 in0.0 mm
04:52 AM 11.2°F-11.6°C 8.0°F-13.3°C 87% 1.8 mph NNW2.9 kmh NNW 1.8 mph2.9 kmh 30.23 in1023.7 mb 0.00 in0.0 mm 0.00 in0.0 mm 0.00 in0.0 mm
04:57 AM 11.5°F-11.4°C 8.4°F-13.1°C 87% 2.2 mph NNW3.5 kmh NNW 2.5 mph4.0 kmh 30.23 in1023.7 mb 0.00 in0.0 mm 0.00 in0.0 mm 0.00 in0.0 mm
05:03 AM 11.5°F-11.4°C 8.4°F-13.1°C 87% 2.5 mph NNW4.0 kmh NNW 2.7 mph4.3 kmh 30.23 in1023.7 mb 0.00 in0.0 mm 0.00 in0.0 mm 0.00 in0.0 mm
05:07 AM 11.5°F-11.4°C 8.4°F-13.1°C 87% 2.5 mph N4.0 kmh N 2.7 mph4.3 kmh 30.23 in1023.7 mb 0.00 in0.0 mm 0.00 in0.0 mm 0.00 in0.0 mm
05:12 AM 11.7°F-11.3°C 8.6°F-13.0°C 87% 1.5 mph NW2.4 kmh NW 2.7 mph4.3 kmh 30.22 in1023.4 mb 0.00 in0.0 mm 0.00 in0.0 mm 0.00 in0.0 mm
05:17 AM 11.9°F-11.2°C 8.7°F-12.9°C 87% 1.5 mph NNW2.4 kmh NNW 2.5 mph4.0 kmh 30.23 in1023.7 mb 0.00 in0.0 mm 0.00 in0.0 mm 0.00 in0.0 mm
05:22 AM 11.9°F-11.2°C 8.7°F-12.9°C 87% 2.2 mph NNW3.5 kmh NNW 2.7 mph4.3 kmh 30.23 in1023.7 mb 0.00 in0.0 mm 0.00 in0.0 mm 0.00 in0.0 mm
05:27 AM 11.9°F-11.2°C 8.7°F-12.9°C 87% 2.8 mph 4.5 kmh 2.9 mph4.7 kmh 30.23 in1023.7 mb 0.00 in0.0 mm 0.00 in0.0 mm 0.00 in0.0 mm
05:32 AM 11.9°F-11.2°C 8.7°F-12.9°C 87% 3.5 mph N5.6 kmh N 3.6 mph5.8 kmh 30.23 in1023.7 mb 0.00 in0.0 mm 0.00 in0.0 mm 0.00 in0.0 mm
05:37 AM 11.9°F-11.2°C 8.5°F-13.1°C 86% 4.2 mph 6.8 kmh 4.7 mph7.6 kmh 30.23 in1023.7 mb 0.00 in0.0 mm 0.00 in0.0 mm 0.00 in0.0 mm
05:42 AM 11.7°F-11.3°C 8.3°F-13.2°C 86% 4.4 mph N7.1 kmh N 4.7 mph7.6 kmh 30.23 in1023.7 mb 0.00 in0.0 mm 0.00 in0.0 mm 0.00 in0.0 mm
05:47 AM 11.7°F-11.3°C 8.3°F-13.2°C 86% 3.7 mph N6.0 kmh N 4.7 mph7.6 kmh 30.23 in1023.7 mb 0.00 in0.0 mm 0.00 in0.0 mm 0.00 in0.0 mm
05:52 AM 11.7°F-11.3°C 8.3°F-13.2°C 86% 3.9 mph N6.3 kmh N 4.9 mph7.9 kmh 30.23 in1023.7 mb 0.00 in0.0 mm 0.00 in0.0 mm 0.00 in0.0 mm
05:57 AM 11.5°F-11.4°C 8.1°F-13.3°C 86% 4.4 mph 7.1 kmh 4.9 mph7.9 kmh 30.23 in1023.7 mb 0.00 in0.0 mm 0.00 in0.0 mm 0.00 in0.0 mm
06:03 AM 11.5°F-11.4°C 8.1°F-13.3°C 86% 3.5 mph 5.6 kmh 4.9 mph7.9 kmh 30.24 in1024.0 mb 0.00 in0.0 mm 0.00 in0.0 mm 0.00 in0.0 mm
06:08 AM 11.5°F-11.4°C 8.1°F-13.3°C 86% 4.0 mph 6.4 kmh 4.9 mph7.9 kmh 30.23 in1023.7 mb 0.00 in0.0 mm 0.00 in0.0 mm 0.00 in0.0 mm
06:13 AM 11.5°F-11.4°C 8.1°F-13.3°C 86% 5.0 mph 8.0 kmh 6.3 mph10.1 kmh 30.23 in1023.7 mb 0.00 in0.0 mm 0.00 in0.0 mm 0.00 in0.0 mm
06:18 AM 11.3°F-11.5°C 7.9°F-13.4°C 86% 4.4 mph ENE7.1 kmh ENE 6.3 mph10.1 kmh 30.24 in1024.0 mb 0.00 in0.0 mm 0.00 in0.0 mm 0.00 in0.0 mm
06:23 AM 10.6°F-11.9°C 7.2°F-13.8°C 86% 7.3 mph N11.7 kmh N 8.5 mph13.7 kmh 30.24 in1024.0 mb 0.00 in0.0 mm 0.00 in0.0 mm 0.00 in0.0 mm
06:28 AM 10.3°F-12.1°C 6.8°F-14.0°C 86% 8.0 mph N12.9 kmh N 9.2 mph14.8 kmh 30.24 in1024.0 mb 0.00 in0.0 mm 0.00 in0.0 mm 0.00 in0.0 mm
06:32 AM 9.9°F-12.3°C 6.5°F-14.2°C 86% 6.9 mph 11.1 kmh 9.2 mph14.8 kmh 30.24 in1024.0 mb 0.00 in0.0 mm 0.00 in0.0 mm 0.00 in0.0 mm
06:37 AM 9.9°F-12.3°C 6.5°F-14.2°C 86% 7.4 mph 11.9 kmh 9.2 mph14.8 kmh 30.24 in1024.0 mb 0.00 in0.0 mm 0.00 in0.0 mm 0.00 in0.0 mm
06:42 AM 9.9°F-12.3°C 6.5°F-14.2°C 86% 7.4 mph 11.9 kmh 7.4 mph11.9 kmh 30.24 in1024.0 mb 0.00 in0.0 mm 0.00 in0.0 mm 0.00 in0.0 mm
06:47 AM 9.9°F-12.3°C 6.5°F-14.2°C 86% 7.4 mph 11.9 kmh 7.4 mph11.9 kmh 30.24 in1024.0 mb 0.00 in0.0 mm 0.00 in0.0 mm 0.00 in0.0 mm
06:52 AM 10.1°F-12.2°C 6.9°F-13.9°C 87% 4.9 mph 7.9 kmh 7.4 mph11.9 kmh 30.24 in1024.0 mb 0.00 in0.0 mm 0.00 in0.0 mm 0.00 in0.0 mm
06:57 AM 10.1°F-12.2°C 6.7°F-14.1°C 86% 3.2 mph 5.1 kmh 7.4 mph11.9 kmh 30.24 in1024.0 mb 0.00 in0.0 mm 0.00 in0.0 mm 0.00 in0.0 mm
07:03 AM 10.4°F-12.0°C 7.3°F-13.7°C 87% 4.2 mph 6.8 kmh 4.5 mph7.2 kmh 30.24 in1024.0 mb 0.00 in0.0 mm 0.00 in0.0 mm 0.00 in0.0 mm
07:08 AM 10.4°F-12.0°C 7.3°F-13.7°C 87% 4.3 mph N6.9 kmh N 5.1 mph8.2 kmh 30.24 in1024.0 mb 0.00 in0.0 mm 0.00 in0.0 mm 0.00 in0.0 mm
07:13 AM 10.4°F-12.0°C 7.3°F-13.7°C 87% 3.7 mph 6.0 kmh 5.1 mph8.2 kmh 30.24 in1024.0 mb 0.00 in0.0 mm 0.00 in0.0 mm 0.00 in0.0 mm
07:18 AM 10.4°F-12.0°C 7.3°F-13.7°C 87% 3.3 mph NNW5.3 kmh NNW 4.0 mph6.4 kmh 30.24 in1024.0 mb 0.00 in0.0 mm 0.00 in0.0 mm 0.00 in0.0 mm
07:23 AM 10.4°F-12.0°C 7.3°F-13.7°C 87% 3.3 mph N5.3 kmh N 3.6 mph5.8 kmh 30.24 in1024.0 mb 0.00 in0.0 mm 0.00 in0.0 mm 0.00 in0.0 mm
07:28 AM 10.4°F-12.0°C 7.3°F-13.7°C 87% 4.0 mph 6.4 kmh 4.5 mph7.2 kmh 30.25 in1024.4 mb 0.00 in0.0 mm 0.00 in0.0 mm 0.00 in0.0 mm
07:33 AM 10.3°F-12.1°C 6.8°F-14.0°C 86% 4.4 mph 7.1 kmh 4.7 mph7.6 kmh 30.25 in1024.4 mb 0.00 in0.0 mm 0.00 in0.0 mm 0.00 in0.0 mm
07:38 AM 10.4°F-12.0°C 7.3°F-13.7°C 87% 3.0 mph 4.8 kmh 4.7 mph7.6 kmh 30.25 in1024.4 mb 0.00 in0.0 mm 0.00 in0.0 mm 0.00 in0.0 mm
07:43 AM 10.4°F-12.0°C 7.3°F-13.7°C 87% 2.3 mph N3.7 kmh N 4.0 mph6.4 kmh 30.25 in1024.4 mb 0.00 in0.0 mm 0.00 in0.0 mm 0.00 in0.0 mm
07:48 AM 10.4°F-12.0°C 7.3°F-13.7°C 87% 2.9 mph NNW4.7 kmh NNW 3.4 mph5.5 kmh 30.25 in1024.4 mb 0.00 in0.0 mm 0.00 in0.0 mm 0.00 in0.0 mm
07:53 AM 10.4°F-12.0°C 7.0°F-13.9°C 86% 3.9 mph N6.3 kmh N 4.3 mph6.9 kmh 30.25 in1024.4 mb 0.00 in0.0 mm 0.00 in0.0 mm 0.00 in0.0 mm
07:58 AM 10.4°F-12.0°C 7.0°F-13.9°C 86% 4.1 mph 6.6 kmh 4.7 mph7.6 kmh 30.25 in1024.4 mb 0.00 in0.0 mm 0.00 in0.0 mm 0.00 in0.0 mm
08:03 AM 10.4°F-12.0°C 7.3°F-13.7°C 87% 4.1 mph N6.6 kmh N 4.7 mph7.6 kmh 30.25 in1024.4 mb 0.00 in0.0 mm 0.00 in0.0 mm 0.00 in0.0 mm
08:08 AM 10.4°F-12.0°C 7.3°F-13.7°C 87% 3.9 mph 6.3 kmh 4.7 mph7.6 kmh 30.26 in1024.7 mb 0.00 in0.0 mm 0.00 in0.0 mm 0.00 in0.0 mm
08:13 AM 10.6°F-11.9°C 7.2°F-13.8°C 86% 4.3 mph N6.9 kmh N 4.7 mph7.6 kmh 30.26 in1024.7 mb 0.00 in0.0 mm 0.00 in0.0 mm 0.00 in0.0 mm
08:18 AM 10.8°F-11.8°C 7.4°F-13.7°C 86% 5.4 mph 8.7 kmh 5.4 mph8.7 kmh 30.26 in1024.7 mb 0.00 in0.0 mm 0.00 in0.0 mm 0.00 in0.0 mm
08:23 AM 10.8°F-11.8°C 7.4°F-13.7°C 86% 5.4 mph 8.7 kmh 5.4 mph8.7 kmh 30.26 in1024.7 mb 0.00 in0.0 mm 0.00 in0.0 mm 0.00 in0.0 mm
08:28 AM 10.8°F-11.8°C 7.4°F-13.7°C 86% 5.4 mph 8.7 kmh 5.4 mph8.7 kmh 30.26 in1024.7 mb 0.00 in0.0 mm 0.00 in0.0 mm 0.00 in0.0 mm
08:33 AM 11.2°F-11.6°C 7.7°F-13.5°C 86% 3.2 mph 5.1 kmh 5.4 mph8.7 kmh 30.26 in1024.7 mb 0.00 in0.0 mm 0.00 in0.0 mm 0.00 in0.0 mm
08:38 AM 11.3°F-11.5°C 8.2°F-13.2°C 87% 3.6 mph NE5.8 kmh NE 5.4 mph8.7 kmh 30.27 in1025.1 mb 0.00 in0.0 mm 0.00 in0.0 mm 0.00 in0.0 mm
08:43 AM 11.5°F-11.4°C 8.4°F-13.1°C 87% 4.2 mph N6.8 kmh N 4.5 mph7.2 kmh 30.27 in1025.1 mb 0.00 in0.0 mm 0.00 in0.0 mm 0.00 in0.0 mm
08:48 AM 11.5°F-11.4°C 8.4°F-13.1°C 87% 3.3 mph N5.3 kmh N 4.5 mph7.2 kmh 30.27 in1025.1 mb 0.00 in0.0 mm 0.00 in0.0 mm 0.00 in0.0 mm
08:53 AM 11.7°F-11.3°C 8.6°F-13.0°C 87% 2.7 mph N4.3 kmh N 4.0 mph6.4 kmh 30.27 in1025.1 mb 0.00 in0.0 mm 0.00 in0.0 mm 0.00 in0.0 mm
08:58 AM 11.9°F-11.2°C 8.7°F-12.9°C 87% 4.5 mph 7.2 kmh 4.9 mph7.9 kmh 30.27 in1025.1 mb 0.00 in0.0 mm 0.00 in0.0 mm 0.00 in0.0 mm
09:03 AM 11.9°F-11.2°C 8.7°F-12.9°C 87% 4.5 mph 7.2 kmh 4.9 mph7.9 kmh 30.28 in1025.4 mb 0.00 in0.0 mm 0.00 in0.0 mm 0.00 in0.0 mm
09:08 AM 11.9°F-11.2°C 8.7°F-12.9°C 87% 4.5 mph 7.2 kmh 4.5 mph7.2 kmh 30.28 in1025.4 mb 0.00 in0.0 mm 0.00 in0.0 mm 0.00 in0.0 mm
09:13 AM 12.6°F-10.8°C 9.5°F-12.5°C 87% 4.2 mph N6.8 kmh N 4.5 mph7.2 kmh 30.27 in1025.1 mb 0.00 in0.0 mm 0.00 in0.0 mm 0.00 in0.0 mm
09:18 AM 12.8°F-10.7°C 9.6°F-12.4°C 87% 3.4 mph NNW5.5 kmh NNW 4.5 mph7.2 kmh 30.27 in1025.1 mb 0.00 in0.0 mm 0.00 in0.0 mm 0.00 in0.0 mm
09:23 AM 13.1°F-10.5°C 10.0°F-12.2°C 87% 3.0 mph NNW4.8 kmh NNW 4.7 mph7.6 kmh 30.27 in1025.1 mb 0.00 in0.0 mm 0.00 in0.0 mm 0.00 in0.0 mm
09:28 AM 13.3°F-10.4°C 10.2°F-12.1°C 87% 3.3 mph N5.3 kmh N 4.7 mph7.6 kmh 30.28 in1025.4 mb 0.00 in0.0 mm 0.00 in0.0 mm 0.00 in0.0 mm
09:33 AM 13.3°F-10.4°C 10.2°F-12.1°C 87% 4.0 mph N6.4 kmh N 4.7 mph7.6 kmh 30.28 in1025.4 mb 0.00 in0.0 mm 0.00 in0.0 mm 0.00 in0.0 mm
09:38 AM 13.5°F-10.3°C 10.4°F-12.0°C 87% 3.5 mph 5.6 kmh 4.7 mph7.6 kmh 30.28 in1025.4 mb 0.00 in0.0 mm 0.00 in0.0 mm 0.00 in0.0 mm
09:43 AM 13.9°F-10.1°C 10.7°F-11.8°C 87% 2.5 mph NNW4.0 kmh NNW 4.7 mph7.6 kmh 30.28 in1025.4 mb 0.00 in0.0 mm 0.00 in0.0 mm 0.00 in0.0 mm
09:48 AM 14.4°F-9.8°C 11.3°F-11.5°C 87% 3.3 mph NNW5.3 kmh NNW 4.7 mph7.6 kmh 30.27 in1025.1 mb 0.00 in0.0 mm 0.00 in0.0 mm 0.00 in0.0 mm
09:53 AM 14.8°F-9.6°C 11.5°F-11.4°C 87% 3.4 mph NNW5.5 kmh NNW 3.8 mph6.1 kmh 30.27 in1025.1 mb 0.00 in0.0 mm 0.00 in0.0 mm 0.00 in0.0 mm
09:58 AM 15.1°F-9.4°C 11.9°F-11.2°C 87% 2.7 mph NNW4.3 kmh NNW 4.0 mph6.4 kmh 30.27 in1025.1 mb 0.00 in0.0 mm 0.00 in0.0 mm 0.00 in0.0 mm
10:04 AM 15.5°F-9.2°C 12.0°F-11.1°C 86% 2.8 mph NW4.5 kmh NW 4.5 mph7.2 kmh 30.27 in1025.1 mb 0.00 in0.0 mm 0.00 in0.0 mm 0.00 in0.0 mm
10:09 AM 16.0°F-8.9°C 12.8°F-10.7°C 87% 3.2 mph NNW5.1 kmh NNW 4.5 mph7.2 kmh 30.27 in1025.1 mb 0.00 in0.0 mm 0.00 in0.0 mm 0.00 in0.0 mm
10:13 AM 16.4°F-8.7°C 13.1°F-10.5°C 87% 2.4 mph NW3.9 kmh NW 4.0 mph6.4 kmh 30.26 in1024.7 mb 0.00 in0.0 mm 0.00 in0.0 mm 0.00 in0.0 mm
10:18 AM 16.9°F-8.4°C 13.6°F-10.2°C 87% 2.2 mph NNW3.5 kmh NNW 4.3 mph6.9 kmh 30.26 in1024.7 mb 0.00 in0.0 mm 0.00 in0.0 mm 0.00 in0.0 mm
10:23 AM 17.3°F-8.2°C 14.0°F-10.0°C 87% 4.8 mph 7.7 kmh 4.9 mph7.9 kmh 30.26 in1024.7 mb 0.00 in0.0 mm 0.00 in0.0 mm 0.00 in0.0 mm
10:28 AM 17.6°F-8.0°C 14.3°F-9.8°C 87% 0.6 mph NE1.0 kmh NE 4.9 mph7.9 kmh 30.26 in1024.7 mb 0.00 in0.0 mm 0.00 in0.0 mm 0.00 in0.0 mm
10:33 AM 17.6°F-8.0°C 14.3°F-9.8°C 87% 2.5 mph N4.0 kmh N 6.3 mph10.1 kmh 30.25 in1024.4 mb 0.00 in0.0 mm 0.00 in0.0 mm 0.00 in0.0 mm
10:38 AM 18.4°F-7.6°C 15.0°F-9.4°C 87% 1.6 mph NW2.6 kmh NW 6.3 mph10.1 kmh 30.25 in1024.4 mb 0.00 in0.0 mm 0.00 in0.0 mm 0.00 in0.0 mm
10:43 AM 18.5°F-7.5°C 14.9°F-9.5°C 86% 3.7 mph N6.0 kmh N 4.9 mph7.9 kmh 30.25 in1024.4 mb 0.00 in0.0 mm 0.00 in0.0 mm 0.00 in0.0 mm
10:48 AM 18.4°F-7.6°C 14.8°F-9.6°C 86% 4.0 mph ENE6.4 kmh ENE 4.9 mph7.9 kmh 30.25 in1024.4 mb 0.00 in0.0 mm 0.00 in0.0 mm 0.00 in0.0 mm
10:53 AM 19.1°F-7.2°C 15.5°F-9.2°C 86% 3.0 mph NE4.8 kmh NE 4.5 mph7.2 kmh 30.25 in1024.4 mb 0.00 in0.0 mm 0.00 in0.0 mm 0.00 in0.0 mm
10:58 AM 19.8°F-6.8°C 15.9°F-8.9°C 85% 2.5 mph NNE4.0 kmh NNE 4.0 mph6.4 kmh 30.24 in1024.0 mb 0.00 in0.0 mm 0.00 in0.0 mm 0.00 in0.0 mm
11:04 AM 19.8°F-6.8°C 15.7°F-9.1°C 84% 2.8 mph NE4.5 kmh NE 4.7 mph7.6 kmh 30.24 in1024.0 mb 0.00 in0.0 mm 0.00 in0.0 mm 0.00 in0.0 mm
11:09 AM 20.5°F-6.4°C 16.4°F-8.7°C 84% 3.0 mph NE4.8 kmh NE 4.7 mph7.6 kmh 30.24 in1024.0 mb 0.00 in0.0 mm 0.00 in0.0 mm 0.00 in0.0 mm
11:14 AM 20.7°F-6.3°C 16.8°F-8.4°C 85% 2.7 mph NE4.3 kmh NE 4.0 mph6.4 kmh 30.24 in1024.0 mb 0.00 in0.0 mm 0.00 in0.0 mm 0.00 in0.0 mm
11:19 AM 21.1°F-6.1°C 16.9°F-8.4°C 84% 1.0 mph NE1.6 kmh NE 4.0 mph6.4 kmh 30.23 in1023.7 mb 0.00 in0.0 mm 0.00 in0.0 mm 0.00 in0.0 mm
11:24 AM 22.0°F-5.6°C 17.6°F-8.0°C 83% 3.6 mph E5.8 kmh E 4.3 mph6.9 kmh 30.23 in1023.7 mb 0.00 in0.0 mm 0.00 in0.0 mm 0.00 in0.0 mm
11:29 AM 22.9°F-5.1°C 18.2°F-7.7°C 82% 1.8 mph S2.9 kmh S 4.3 mph6.9 kmh 30.23 in1023.7 mb 0.00 in0.0 mm 0.00 in0.0 mm 0.00 in0.0 mm
11:34 AM 24.1°F-4.4°C 19.4°F-7.0°C 82% 2.3 mph SW3.7 kmh SW 2.9 mph4.7 kmh 30.23 in1023.7 mb 0.00 in0.0 mm 0.00 in0.0 mm 0.00 in0.0 mm
11:38 AM 24.5°F-4.2°C 19.8°F-6.8°C 82% 1.4 mph S2.3 kmh S 2.9 mph4.7 kmh 30.23 in1023.7 mb 0.00 in0.0 mm 0.00 in0.0 mm 0.00 in0.0 mm
11:43 AM 24.8°F-4.0°C 19.6°F-6.9°C 80% 1.1 mph ESE1.8 kmh ESE 2.9 mph4.7 kmh 30.22 in1023.4 mb 0.00 in0.0 mm 0.00 in0.0 mm 0.00 in0.0 mm
11:48 AM 25.4°F-3.7°C 20.3°F-6.5°C 81% 2.6 mph NE4.2 kmh NE 2.7 mph4.3 kmh 30.22 in1023.4 mb 0.00 in0.0 mm 0.00 in0.0 mm 0.00 in0.0 mm
11:53 AM 25.6°F-3.6°C 20.0°F-6.7°C 79% 2.5 mph N4.0 kmh N 3.8 mph6.1 kmh 30.22 in1023.4 mb 0.00 in0.0 mm 0.00 in0.0 mm 0.00 in0.0 mm
11:58 AM 24.1°F-4.4°C 18.5°F-7.5°C 79% 4.7 mph NE7.6 kmh NE 5.6 mph9.0 kmh 30.21 in1023.0 mb 0.00 in0.0 mm 0.00 in0.0 mm 0.00 in0.0 mm
12:04 PM 22.5°F-5.3°C 16.0°F-8.9°C 76% 4.1 mph NE6.6 kmh NE 5.8 mph9.3 kmh 30.21 in1023.0 mb 0.00 in0.0 mm 0.00 in0.0 mm 0.00 in0.0 mm
12:09 PM 21.8°F-5.7°C 15.3°F-9.3°C 76% 2.4 mph NE3.9 kmh NE 5.8 mph9.3 kmh 30.21 in1023.0 mb 0.00 in0.0 mm 0.00 in0.0 mm 0.00 in0.0 mm
12:14 PM 22.7°F-5.2°C 16.6°F-8.6°C 77% 4.3 mph ENE6.9 kmh ENE 5.4 mph8.7 kmh 30.21 in1023.0 mb 0.00 in0.0 mm 0.00 in0.0 mm 0.00 in0.0 mm
12:19 PM 22.3°F-5.4°C 15.8°F-9.0°C 76% 2.8 mph NNE4.5 kmh NNE 5.4 mph8.7 kmh 30.21 in1023.0 mb 0.00 in0.0 mm 0.00 in0.0 mm 0.00 in0.0 mm
12:24 PM 22.9°F-5.1°C 16.4°F-8.7°C 76% 4.6 mph ENE7.4 kmh ENE 5.4 mph8.7 kmh 30.20 in1022.7 mb 0.00 in0.0 mm 0.00 in0.0 mm 0.00 in0.0 mm
12:29 PM 22.5°F-5.3°C 15.8°F-9.0°C 75% 5.9 mph NE9.5 kmh NE 6.3 mph10.1 kmh 30.20 in1022.7 mb 0.00 in0.0 mm 0.00 in0.0 mm 0.00 in0.0 mm
12:34 PM 21.4°F-5.9°C 14.4°F-9.8°C 74% 6.4 mph 10.3 kmh 8.5 mph13.7 kmh 30.20 in1022.7 mb 0.00 in0.0 mm 0.00 in0.0 mm 0.00 in0.0 mm
12:39 PM 20.9°F-6.2°C 13.5°F-10.3°C 73% 4.9 mph 7.9 kmh 8.5 mph13.7 kmh 30.20 in1022.7 mb 0.00 in0.0 mm 0.00 in0.0 mm 0.00 in0.0 mm
12:44 PM 20.2°F-6.6°C 12.8°F-10.7°C 73% 6.2 mph N10.0 kmh N 8.3 mph13.4 kmh 30.20 in1022.7 mb 0.00 in0.0 mm 0.00 in0.0 mm 0.00 in0.0 mm
12:49 PM 19.6°F-6.9°C 12.2°F-11.0°C 73% 5.6 mph NNE9.0 kmh NNE 8.3 mph13.4 kmh 30.20 in1022.7 mb 0.00 in0.0 mm 0.00 in0.0 mm 0.00 in0.0 mm
12:54 PM 19.4°F-7.0°C 12.1°F-11.1°C 73% 5.6 mph NE9.0 kmh NE 7.6 mph12.2 kmh 30.20 in1022.7 mb 0.00 in0.0 mm 0.00 in0.0 mm 0.00 in0.0 mm
12:58 PM 19.1°F-7.2°C 12.1°F-11.1°C 74% 5.3 mph 8.5 kmh 7.6 mph12.2 kmh 30.20 in1022.7 mb 0.00 in0.0 mm 0.00 in0.0 mm 0.00 in0.0 mm
01:04 PM 19.8°F-6.8°C 13.1°F-10.5°C 75% 2.3 mph N3.7 kmh N 7.6 mph12.2 kmh 30.20 in1022.7 mb 0.00 in0.0 mm 0.00 in0.0 mm 0.00 in0.0 mm
01:09 PM 19.8°F-6.8°C 13.1°F-10.5°C 75% 4.6 mph N7.4 kmh N 6.3 mph10.1 kmh 30.20 in1022.7 mb 0.00 in0.0 mm 0.00 in0.0 mm 0.00 in0.0 mm
01:14 PM 19.8°F-6.8°C 12.8°F-10.7°C 74% 4.9 mph NE7.9 kmh NE 6.9 mph11.1 kmh 30.19 in1022.4 mb 0.00 in0.0 mm 0.00 in0.0 mm 0.00 in0.0 mm
01:19 PM 19.8°F-6.8°C 12.8°F-10.7°C 74% 1.5 mph WSW2.4 kmh WSW 6.9 mph11.1 kmh 30.19 in1022.4 mb 0.00 in0.0 mm 0.00 in0.0 mm 0.00 in0.0 mm
01:24 PM 20.5°F-6.4°C 13.8°F-10.1°C 75% 2.0 mph NNE3.2 kmh NNE 4.0 mph6.4 kmh 30.19 in1022.4 mb 0.00 in0.0 mm 0.00 in0.0 mm 0.00 in0.0 mm
01:29 PM 21.1°F-6.1°C 14.1°F-9.9°C 74% 2.9 mph E4.7 kmh E 4.3 mph6.9 kmh 30.19 in1022.4 mb 0.00 in0.0 mm 0.00 in0.0 mm 0.00 in0.0 mm
01:34 PM 21.8°F-5.7°C 14.8°F-9.6°C 74% 2.0 mph NE3.2 kmh NE 4.7 mph7.6 kmh 30.19 in1022.4 mb 0.00 in0.0 mm 0.00 in0.0 mm 0.00 in0.0 mm
01:39 PM 21.8°F-5.7°C 14.4°F-9.8°C 73% 2.7 mph 4.3 kmh 4.7 mph7.6 kmh 30.19 in1022.4 mb 0.00 in0.0 mm 0.00 in0.0 mm 0.00 in0.0 mm
01:44 PM 21.6°F-5.8°C 14.2°F-9.9°C 73% 1.7 mph 2.7 kmh 4.0 mph6.4 kmh 30.19 in1022.4 mb 0.00 in0.0 mm 0.00 in0.0 mm 0.00 in0.0 mm
01:49 PM 21.6°F-5.8°C 14.2°F-9.9°C 73% 4.9 mph 7.9 kmh 7.8 mph12.6 kmh 30.19 in1022.4 mb 0.00 in0.0 mm 0.00 in0.0 mm 0.00 in0.0 mm
01:54 PM 20.9°F-6.2°C 12.9°F-10.6°C 71% 5.6 mph N9.0 kmh N 7.8 mph12.6 kmh 30.19 in1022.4 mb 0.00 in0.0 mm 0.00 in0.0 mm 0.00 in0.0 mm
02:00 PM 20.3°F-6.5°C 12.3°F-10.9°C 71% 4.1 mph NE6.6 kmh NE 6.3 mph10.1 kmh 30.19 in1022.4 mb 0.00 in0.0 mm 0.00 in0.0 mm 0.00 in0.0 mm
02:05 PM 20.2°F-6.6°C 12.2°F-11.0°C 71% 4.2 mph NNE6.8 kmh NNE 6.3 mph10.1 kmh 30.18 in1022.0 mb 0.00 in0.0 mm 0.00 in0.0 mm 0.00 in0.0 mm
02:10 PM 20.0°F-6.7°C 12.0°F-11.1°C 71% 7.2 mph NE11.6 kmh NE 8.3 mph13.4 kmh 30.18 in1022.0 mb 0.00 in0.0 mm 0.00 in0.0 mm 0.00 in0.0 mm
02:14 PM 19.8°F-6.8°C 11.8°F-11.2°C 71% 6.2 mph NE10.0 kmh NE 8.3 mph13.4 kmh 30.18 in1022.0 mb 0.00 in0.0 mm 0.00 in0.0 mm 0.00 in0.0 mm
02:19 PM 19.4°F-7.0°C 11.4°F-11.4°C 71% 5.5 mph E8.9 kmh E 9.8 mph15.8 kmh 30.18 in1022.0 mb 0.00 in0.0 mm 0.00 in0.0 mm 0.00 in0.0 mm
02:24 PM 19.4°F-7.0°C 11.8°F-11.2°C 72% 4.7 mph NE7.6 kmh NE 9.8 mph15.8 kmh 30.18 in1022.0 mb 0.00 in0.0 mm 0.00 in0.0 mm 0.00 in0.0 mm
02:29 PM 19.1°F-7.2°C 11.2°F-11.6°C 71% 8.8 mph NNE14.2 kmh NNE 10.1 mph16.3 kmh 30.18 in1022.0 mb 0.00 in0.0 mm 0.00 in0.0 mm 0.00 in0.0 mm
02:34 PM 18.4°F-7.6°C 10.4°F-12.0°C 71% 6.4 mph NE10.3 kmh NE 10.1 mph16.3 kmh 30.18 in1022.0 mb 0.00 in0.0 mm 0.00 in0.0 mm 0.00 in0.0 mm
02:39 PM 18.2°F-7.7°C 10.4°F-12.0°C 71% 6.1 mph 9.8 kmh 8.1 mph13.0 kmh 30.18 in1022.0 mb 0.00 in0.0 mm 0.00 in0.0 mm 0.00 in0.0 mm
02:44 PM 18.2°F-7.7°C 10.4°F-12.0°C 71% 4.0 mph ENE6.4 kmh ENE 9.2 mph14.8 kmh 30.18 in1022.0 mb 0.00 in0.0 mm 0.00 in0.0 mm 0.00 in0.0 mm
02:49 PM 18.5°F-7.5°C 11.3°F-11.5°C 73% 5.8 mph NNE9.3 kmh NNE 9.2 mph14.8 kmh 30.17 in1021.7 mb 0.00 in0.0 mm 0.00 in0.0 mm 0.00 in0.0 mm
02:54 PM 18.4°F-7.6°C 10.4°F-12.0°C 71% 4.5 mph NE7.2 kmh NE 7.2 mph11.6 kmh 30.17 in1021.7 mb 0.00 in0.0 mm 0.00 in0.0 mm 0.00 in0.0 mm
03:00 PM 18.4°F-7.6°C 10.8°F-11.8°C 72% 4.2 mph 6.8 kmh 7.2 mph11.6 kmh 30.17 in1021.7 mb 0.00 in0.0 mm 0.00 in0.0 mm 0.00 in0.0 mm
03:05 PM 18.4°F-7.6°C 10.4°F-12.0°C 71% 6.1 mph 9.8 kmh 6.3 mph10.1 kmh 30.17 in1021.7 mb 0.00 in0.0 mm 0.00 in0.0 mm 0.00 in0.0 mm
03:10 PM 18.4°F-7.6°C 10.8°F-11.8°C 72% 3.7 mph N6.0 kmh N 6.3 mph10.1 kmh 30.17 in1021.7 mb 0.00 in0.0 mm 0.00 in0.0 mm 0.00 in0.0 mm
03:15 PM 18.4°F-7.6°C 10.8°F-11.8°C 72% 2.3 mph NW3.7 kmh NW 4.0 mph6.4 kmh 30.17 in1021.7 mb 0.00 in0.0 mm 0.00 in0.0 mm 0.00 in0.0 mm
03:20 PM 18.7°F-7.4°C 11.4°F-11.4°C 73% 5.2 mph N8.4 kmh N 6.3 mph10.1 kmh 30.17 in1021.7 mb 0.00 in0.0 mm 0.00 in0.0 mm 0.00 in0.0 mm
03:25 PM 18.4°F-7.6°C 10.8°F-11.8°C 72% 6.4 mph NW10.3 kmh NW 6.9 mph11.1 kmh 30.17 in1021.7 mb 0.00 in0.0 mm 0.00 in0.0 mm 0.00 in0.0 mm
03:30 PM 18.2°F-7.7°C 10.6°F-11.9°C 72% 3.5 mph NW5.6 kmh NW 6.9 mph11.1 kmh 30.17 in1021.7 mb 0.00 in0.0 mm 0.00 in0.0 mm 0.00 in0.0 mm
03:35 PM 18.4°F-7.6°C 10.8°F-11.8°C 72% 3.6 mph NW5.8 kmh NW 4.3 mph6.9 kmh 30.17 in1021.7 mb 0.00 in0.0 mm 0.00 in0.0 mm 0.00 in0.0 mm
03:40 PM 18.4°F-7.6°C 10.8°F-11.8°C 72% 2.6 mph NNW4.2 kmh NNW 4.7 mph7.6 kmh 30.17 in1021.7 mb 0.00 in0.0 mm 0.00 in0.0 mm 0.00 in0.0 mm
03:45 PM 18.4°F-7.6°C 10.8°F-11.8°C 72% 1.5 mph 2.4 kmh 4.7 mph7.6 kmh 30.17 in1021.7 mb 0.00 in0.0 mm 0.00 in0.0 mm 0.00 in0.0 mm
03:50 PM 18.4°F-7.6°C 10.8°F-11.8°C 72% 1.5 mph NNW2.4 kmh NNW 3.6 mph5.8 kmh 30.17 in1021.7 mb 0.00 in0.0 mm 0.00 in0.0 mm 0.00 in0.0 mm
03:55 PM 18.4°F-7.6°C 10.8°F-11.8°C 72% 2.1 mph N3.4 kmh N 3.6 mph5.8 kmh 30.16 in1021.3 mb 0.00 in0.0 mm 0.00 in0.0 mm 0.00 in0.0 mm
04:00 PM 18.4°F-7.6°C 10.8°F-11.8°C 72% 1.0 mph NE1.6 kmh NE 3.1 mph5.0 kmh 30.17 in1021.7 mb 0.00 in0.0 mm 0.00 in0.0 mm 0.00 in0.0 mm
04:05 PM 18.7°F-7.4°C 11.4°F-11.4°C 73% 0.2 mph NNE0.3 kmh NNE 2.2 mph3.5 kmh 30.17 in1021.7 mb 0.00 in0.0 mm 0.00 in0.0 mm 0.00 in0.0 mm
04:10 PM 18.7°F-7.4°C 11.1°F-11.6°C 72% 0.4 mph NE0.6 kmh NE 1.8 mph2.9 kmh 30.17 in1021.7 mb 0.00 in0.0 mm 0.00 in0.0 mm 0.00 in0.0 mm
04:15 PM 18.7°F-7.4°C 11.1°F-11.6°C 72% 2.7 mph ENE4.3 kmh ENE 2.9 mph4.7 kmh 30.18 in1022.0 mb 0.00 in0.0 mm 0.00 in0.0 mm 0.00 in0.0 mm
04:20 PM 18.2°F-7.7°C 10.4°F-12.0°C 71% 4.9 mph ENE7.9 kmh ENE 6.0 mph9.7 kmh 30.18 in1022.0 mb 0.00 in0.0 mm 0.00 in0.0 mm 0.00 in0.0 mm
04:25 PM 17.3°F-8.2°C 9.5°F-12.5°C 71% 4.7 mph NE7.6 kmh NE 6.0 mph9.7 kmh 30.19 in1022.4 mb 0.00 in0.0 mm 0.00 in0.0 mm 0.00 in0.0 mm
04:30 PM 16.2°F-8.8°C 8.4°F-13.1°C 71% 3.9 mph NNE6.3 kmh NNE 5.4 mph8.7 kmh 30.19 in1022.4 mb 0.00 in0.0 mm 0.00 in0.0 mm 0.00 in0.0 mm
04:35 PM 15.5°F-9.2°C 7.8°F-13.4°C 71% 4.7 mph NE7.6 kmh NE 5.4 mph8.7 kmh 30.19 in1022.4 mb 0.00 in0.0 mm 0.00 in0.0 mm 0.00 in0.0 mm
04:40 PM 14.8°F-9.6°C 7.0°F-13.9°C 71% 3.6 mph NNE5.8 kmh NNE 5.1 mph8.2 kmh 30.20 in1022.7 mb 0.00 in0.0 mm 0.00 in0.0 mm 0.00 in0.0 mm
04:45 PM 14.2°F-9.9°C 6.6°F-14.1°C 71% 4.5 mph NE7.2 kmh NE 4.7 mph7.6 kmh 30.20 in1022.7 mb 0.00 in0.0 mm 0.00 in0.0 mm 0.00 in0.0 mm
04:50 PM 13.7°F-10.2°C 6.3°F-14.3°C 72% 4.7 mph NNE7.6 kmh NNE 4.7 mph7.6 kmh 30.20 in1022.7 mb 0.00 in0.0 mm 0.00 in0.0 mm 0.00 in0.0 mm
04:55 PM 13.1°F-10.5°C 5.8°F-14.6°C 72% 4.8 mph NNE7.7 kmh NNE 4.9 mph7.9 kmh 30.21 in1023.0 mb 0.00 in0.0 mm 0.00 in0.0 mm 0.00 in0.0 mm
05:00 PM 12.6°F-10.8°C 5.6°F-14.7°C 73% 5.9 mph NNE9.5 kmh NNE 6.0 mph9.7 kmh 30.21 in1023.0 mb 0.00 in0.0 mm 0.00 in0.0 mm 0.00 in0.0 mm
05:05 PM 12.2°F-11.0°C 5.5°F-14.7°C 74% 6.2 mph 10.0 kmh 8.5 mph13.7 kmh 30.21 in1023.0 mb 0.00 in0.0 mm 0.00 in0.0 mm 0.00 in0.0 mm
05:10 PM 11.5°F-11.4°C 4.5°F-15.3°C 73% 6.4 mph N10.3 kmh N 8.5 mph13.7 kmh 30.21 in1023.0 mb 0.00 in0.0 mm 0.00 in0.0 mm 0.00 in0.0 mm
05:15 PM 11.2°F-11.6°C 4.4°F-15.3°C 74% 5.2 mph N8.4 kmh N 6.5 mph10.5 kmh 30.21 in1023.0 mb 0.00 in0.0 mm 0.00 in0.0 mm 0.00 in0.0 mm
05:20 PM 11.2°F-11.6°C 4.4°F-15.3°C 74% 3.5 mph N5.6 kmh N 6.3 mph10.1 kmh 30.21 in1023.0 mb 0.00 in0.0 mm 0.00 in0.0 mm 0.00 in0.0 mm
05:25 PM 10.8°F-11.8°C 4.1°F-15.5°C 74% 3.0 mph NE4.8 kmh NE 5.6 mph9.0 kmh 30.21 in1023.0 mb 0.00 in0.0 mm 0.00 in0.0 mm 0.00 in0.0 mm
05:30 PM 10.6°F-11.9°C 3.9°F-15.6°C 74% 4.0 mph NE6.4 kmh NE 4.0 mph6.4 kmh 30.20 in1022.7 mb 0.00 in0.0 mm 0.00 in0.0 mm 0.00 in0.0 mm
05:35 PM 10.6°F-11.9°C 3.9°F-15.6°C 74% 4.0 mph NE6.4 kmh NE 4.0 mph6.4 kmh 30.20 in1022.7 mb 0.00 in0.0 mm 0.00 in0.0 mm 0.00 in0.0 mm
05:40 PM 10.6°F-11.9°C 3.9°F-15.6°C 74% 4.0 mph NE6.4 kmh NE 4.0 mph6.4 kmh 30.20 in1022.7 mb 0.00 in0.0 mm 0.00 in0.0 mm 0.00 in0.0 mm
05:45 PM 9.7°F-12.4°C 3.3°F-15.9°C 75% 5.5 mph N8.9 kmh N 6.3 mph10.1 kmh 30.21 in1023.0 mb 0.00 in0.0 mm 0.00 in0.0 mm 0.00 in0.0 mm
05:50 PM 9.2°F-12.7°C 2.8°F-16.2°C 75% 5.3 mph N8.5 kmh N 7.6 mph12.2 kmh 30.21 in1023.0 mb 0.00 in0.0 mm 0.00 in0.0 mm 0.00 in0.0 mm
05:55 PM 9.0°F-12.8°C 3.0°F-16.1°C 76% 4.6 mph 7.4 kmh 7.6 mph12.2 kmh 30.20 in1022.7 mb 0.00 in0.0 mm 0.00 in0.0 mm 0.00 in0.0 mm
06:01 PM 8.5°F-13.1°C 2.4°F-16.4°C 76% 4.2 mph 6.8 kmh 5.6 mph9.0 kmh 30.20 in1022.7 mb 0.00 in0.0 mm 0.00 in0.0 mm 0.00 in0.0 mm
06:06 PM 8.3°F-13.2°C 2.3°F-16.5°C 76% 2.5 mph 4.0 kmh 5.4 mph8.7 kmh 30.20 in1022.7 mb 0.00 in0.0 mm 0.00 in0.0 mm 0.00 in0.0 mm
06:10 PM 8.3°F-13.2°C 2.3°F-16.5°C 76% 4.3 mph N6.9 kmh N 4.7 mph7.6 kmh 30.20 in1022.7 mb 0.00 in0.0 mm 0.00 in0.0 mm 0.00 in0.0 mm
06:15 PM 7.9°F-13.4°C 2.2°F-16.6°C 77% 3.7 mph N6.0 kmh N 5.4 mph8.7 kmh 30.20 in1022.7 mb 0.00 in0.0 mm 0.00 in0.0 mm 0.00 in0.0 mm
06:20 PM 7.7°F-13.5°C 2.0°F-16.7°C 77% 4.4 mph N7.1 kmh N 5.4 mph8.7 kmh 30.20 in1022.7 mb 0.00 in0.0 mm 0.00 in0.0 mm 0.00 in0.0 mm
06:25 PM 7.6°F-13.6°C 1.8°F-16.8°C 77% 3.9 mph NNW6.3 kmh NNW 5.1 mph8.2 kmh 30.20 in1022.7 mb 0.00 in0.0 mm 0.00 in0.0 mm 0.00 in0.0 mm
06:30 PM 7.6°F-13.6°C 1.8°F-16.8°C 77% 2.2 mph N3.5 kmh N 4.7 mph7.6 kmh 30.19 in1022.4 mb 0.00 in0.0 mm 0.00 in0.0 mm 0.00 in0.0 mm
06:35 PM 7.4°F-13.7°C 1.4°F-17.0°C 76% 3.3 mph NNW5.3 kmh NNW 3.8 mph6.1 kmh 30.18 in1022.0 mb 0.00 in0.0 mm 0.00 in0.0 mm 0.00 in0.0 mm
06:40 PM 7.2°F-13.8°C 1.2°F-17.1°C 76% 4.1 mph NNW6.6 kmh NNW 4.5 mph7.2 kmh 30.18 in1022.0 mb 0.00 in0.0 mm 0.00 in0.0 mm 0.00 in0.0 mm
06:45 PM 7.2°F-13.8°C 1.2°F-17.1°C 76% 5.1 mph 8.2 kmh 6.5 mph10.5 kmh 30.19 in1022.4 mb 0.00 in0.0 mm 0.00 in0.0 mm 0.00 in0.0 mm
06:50 PM 7.0°F-13.9°C 1.0°F-17.2°C 76% 4.5 mph N7.2 kmh N 6.5 mph10.5 kmh 30.18 in1022.0 mb 0.00 in0.0 mm 0.00 in0.0 mm 0.00 in0.0 mm
06:55 PM 7.2°F-13.8°C 1.2°F-17.1°C 76% 2.8 mph NE4.5 kmh NE 5.4 mph8.7 kmh 30.18 in1022.0 mb 0.00 in0.0 mm 0.00 in0.0 mm 0.00 in0.0 mm
07:01 PM 7.2°F-13.8°C 1.2°F-17.1°C 76% 1.9 mph ESE3.1 kmh ESE 3.4 mph5.5 kmh 30.18 in1022.0 mb 0.00 in0.0 mm 0.00 in0.0 mm 0.00 in0.0 mm
07:06 PM 7.4°F-13.7°C 1.6°F-16.9°C 77% 2.0 mph 3.2 kmh 2.5 mph4.0 kmh 30.18 in1022.0 mb 0.00 in0.0 mm 0.00 in0.0 mm 0.00 in0.0 mm
07:11 PM 7.4°F-13.7°C 1.6°F-16.9°C 77% Calm Calm 2.5 mph4.0 kmh 30.18 in1022.0 mb 0.00 in0.0 mm 0.00 in0.0 mm 0.00 in0.0 mm
07:16 PM 7.4°F-13.7°C 1.6°F-16.9°C 77% Calm Calm 0.4 mph0.6 kmh 30.18 in1022.0 mb 0.00 in0.0 mm 0.00 in0.0 mm 0.00 in0.0 mm
07:21 PM 7.4°F-13.7°C 1.6°F-16.9°C 77% Calm Calm -- 30.19 in1022.4 mb 0.00 in0.0 mm 0.00 in0.0 mm 0.00 in0.0 mm
07:25 PM 7.4°F-13.7°C 1.6°F-16.9°C 77% 2.9 mph 4.7 kmh 2.9 mph4.7 kmh 30.19 in1022.4 mb 0.00 in0.0 mm 0.00 in0.0 mm 0.00 in0.0 mm
07:30 PM 7.2°F-13.8°C 1.2°F-17.1°C 76% 2.2 mph NNE3.5 kmh NNE 4.7 mph7.6 kmh 30.19 in1022.4 mb 0.00 in0.0 mm 0.00 in0.0 mm 0.00 in0.0 mm
07:35 PM 7.0°F-13.9°C 1.3°F-17.1°C 77% 2.5 mph E4.0 kmh E 4.7 mph7.6 kmh 30.19 in1022.4 mb 0.00 in0.0 mm 0.00 in0.0 mm 0.00 in0.0 mm
07:40 PM 6.8°F-14.0°C 1.1°F-17.2°C 77% 3.3 mph E5.3 kmh E 3.4 mph5.5 kmh 30.18 in1022.0 mb 0.00 in0.0 mm 0.00 in0.0 mm 0.00 in0.0 mm
07:45 PM 7.0°F-13.9°C 1.3°F-17.1°C 77% 4.3 mph E6.9 kmh E 5.1 mph8.2 kmh 30.18 in1022.0 mb 0.00 in0.0 mm 0.00 in0.0 mm 0.00 in0.0 mm
07:51 PM 7.2°F-13.8°C 1.4°F-17.0°C 77% 2.5 mph ESE4.0 kmh ESE 5.1 mph8.2 kmh 30.18 in1022.0 mb 0.00 in0.0 mm 0.00 in0.0 mm 0.00 in0.0 mm
07:56 PM 7.2°F-13.8°C 1.4°F-17.0°C 77% Calm Calm 3.8 mph6.1 kmh 30.18 in1022.0 mb 0.00 in0.0 mm 0.00 in0.0 mm 0.00 in0.0 mm
08:01 PM 7.2°F-13.8°C 1.4°F-17.0°C 77% 3.2 mph NW5.1 kmh NW 3.4 mph5.5 kmh 30.18 in1022.0 mb 0.00 in0.0 mm 0.00 in0.0 mm 0.00 in0.0 mm
08:06 PM 6.8°F-14.0°C 1.1°F-17.2°C 77% 0.9 mph NNW1.4 kmh NNW 3.4 mph5.5 kmh 30.18 in1022.0 mb 0.00 in0.0 mm 0.00 in0.0 mm 0.00 in0.0 mm
08:11 PM 6.7°F-14.1°C 0.9°F-17.3°C 77% 2.7 mph NE4.3 kmh NE 2.9 mph4.7 kmh 30.18 in1022.0 mb 0.00 in0.0 mm 0.00 in0.0 mm 0.00 in0.0 mm
08:16 PM 6.5°F-14.2°C 0.7°F-17.4°C 77% 2.0 mph 3.2 kmh 2.9 mph4.7 kmh 30.18 in1022.0 mb 0.00 in0.0 mm 0.00 in0.0 mm 0.00 in0.0 mm
08:21 PM 6.3°F-14.3°C 0.5°F-17.5°C 77% 2.7 mph N4.3 kmh N 2.7 mph4.3 kmh 30.18 in1022.0 mb 0.00 in0.0 mm 0.00 in0.0 mm 0.00 in0.0 mm
08:26 PM 6.1°F-14.4°C 0.7°F-17.4°C 78% 2.9 mph 4.7 kmh 3.4 mph5.5 kmh 30.18 in1022.0 mb 0.00 in0.0 mm 0.00 in0.0 mm 0.00 in0.0 mm
08:31 PM 6.1°F-14.4°C 0.7°F-17.4°C 78% 2.9 mph 4.7 kmh 3.4 mph5.5 kmh 30.19 in1022.4 mb 0.00 in0.0 mm 0.00 in0.0 mm 0.00 in0.0 mm
08:36 PM 6.1°F-14.4°C 0.7°F-17.4°C 78% 2.9 mph 4.7 kmh 2.9 mph4.7 kmh 30.19 in1022.4 mb 0.00 in0.0 mm 0.00 in0.0 mm 0.00 in0.0 mm
08:41 PM 6.1°F-14.4°C 0.7°F-17.4°C 78% 3.8 mph NE6.1 kmh NE 4.7 mph7.6 kmh 30.19 in1022.4 mb 0.00 in0.0 mm 0.00 in0.0 mm 0.00 in0.0 mm
08:46 PM 6.1°F-14.4°C 0.7°F-17.4°C 78% 4.7 mph E7.6 kmh E 4.7 mph7.6 kmh 30.18 in1022.0 mb 0.00 in0.0 mm 0.00 in0.0 mm 0.00 in0.0 mm
08:51 PM 6.1°F-14.4°C 0.7°F-17.4°C 78% 4.7 mph E7.6 kmh E 4.7 mph7.6 kmh 30.18 in1022.0 mb 0.00 in0.0 mm 0.00 in0.0 mm 0.00 in0.0 mm
08:56 PM 6.1°F-14.4°C 0.7°F-17.4°C 78% 4.7 mph E7.6 kmh E 4.7 mph7.6 kmh 30.18 in1022.0 mb 0.00 in0.0 mm 0.00 in0.0 mm 0.00 in0.0 mm
09:01 PM 6.1°F-14.4°C 0.7°F-17.4°C 78% 4.5 mph NE7.2 kmh NE 4.7 mph7.6 kmh 30.18 in1022.0 mb 0.00 in0.0 mm 0.00 in0.0 mm 0.00 in0.0 mm
09:06 PM 5.9°F-14.5°C 0.6°F-17.4°C 78% 5.3 mph NE8.5 kmh NE 5.8 mph9.3 kmh 30.18 in1022.0 mb 0.00 in0.0 mm 0.00 in0.0 mm 0.00 in0.0 mm
09:11 PM 5.8°F-14.6°C 0.4°F-17.6°C 78% 5.1 mph ENE8.2 kmh ENE 5.8 mph9.3 kmh 30.18 in1022.0 mb 0.00 in0.0 mm 0.00 in0.0 mm 0.00 in0.0 mm
09:16 PM 5.6°F-14.7°C 0.2°F-17.7°C 78% 4.4 mph ENE7.1 kmh ENE 5.4 mph8.7 kmh 30.18 in1022.0 mb 0.00 in0.0 mm 0.00 in0.0 mm 0.00 in0.0 mm
09:21 PM 5.6°F-14.7°C 0.5°F-17.5°C 79% 3.9 mph ENE6.3 kmh ENE 5.6 mph9.0 kmh 30.18 in1022.0 mb 0.00 in0.0 mm 0.00 in0.0 mm 0.00 in0.0 mm
09:26 PM 5.6°F-14.7°C 0.5°F-17.5°C 79% 3.0 mph NE4.8 kmh NE 5.6 mph9.0 kmh 30.18 in1022.0 mb 0.00 in0.0 mm 0.00 in0.0 mm 0.00 in0.0 mm
09:31 PM 5.4°F-14.8°C 0.0°F-17.8°C 78% 2.1 mph NE3.4 kmh NE 4.0 mph6.4 kmh 30.18 in1022.0 mb 0.00 in0.0 mm 0.00 in0.0 mm 0.00 in0.0 mm
09:36 PM 5.2°F-14.9°C -0.2°F-17.9°C 78% 3.1 mph NE5.0 kmh NE 3.8 mph6.1 kmh 30.18 in1022.0 mb 0.00 in0.0 mm 0.00 in0.0 mm 0.00 in0.0 mm
09:41 PM 4.9°F-15.1°C -0.5°F-18.1°C 78% 3.0 mph N4.8 kmh N 3.8 mph6.1 kmh 30.18 in1022.0 mb 0.00 in0.0 mm 0.00 in0.0 mm 0.00 in0.0 mm
09:46 PM 4.7°F-15.2°C -0.7°F-18.2°C 78% 4.1 mph NNE6.6 kmh NNE 4.3 mph6.9 kmh 30.18 in1022.0 mb 0.00 in0.0 mm 0.00 in0.0 mm 0.00 in0.0 mm
09:51 PM 4.3°F-15.4°C -1.1°F-18.4°C 78% 3.8 mph NNE6.1 kmh NNE 4.3 mph6.9 kmh 30.18 in1022.0 mb 0.00 in0.0 mm 0.00 in0.0 mm 0.00 in0.0 mm
09:56 PM 4.3°F-15.4°C -0.8°F-18.2°C 79% 3.6 mph NNE5.8 kmh NNE 4.7 mph7.6 kmh 30.18 in1022.0 mb 0.00 in0.0 mm 0.00 in0.0 mm 0.00 in0.0 mm
10:01 PM 4.3°F-15.4°C -0.8°F-18.2°C 79% 1.6 mph NNE2.6 kmh NNE 4.7 mph7.6 kmh 30.18 in1022.0 mb 0.00 in0.0 mm 0.00 in0.0 mm 0.00 in0.0 mm
10:06 PM 4.3°F-15.4°C -0.8°F-18.2°C 79% 2.8 mph NNE4.5 kmh NNE 4.0 mph6.4 kmh 30.17 in1021.7 mb 0.00 in0.0 mm 0.00 in0.0 mm 0.00 in0.0 mm
10:11 PM 4.0°F-15.6°C -1.2°F-18.4°C 79% 2.6 mph 4.2 kmh 4.0 mph6.4 kmh 30.18 in1022.0 mb 0.00 in0.0 mm 0.00 in0.0 mm 0.00 in0.0 mm
10:16 PM 4.0°F-15.6°C -1.2°F-18.4°C 79% 3.3 mph NNE5.3 kmh NNE 3.8 mph6.1 kmh 30.17 in1021.7 mb 0.00 in0.0 mm 0.00 in0.0 mm 0.00 in0.0 mm
10:21 PM 3.8°F-15.7°C -1.3°F-18.5°C 79% 2.3 mph NNE3.7 kmh NNE 4.9 mph7.9 kmh 30.17 in1021.7 mb 0.00 in0.0 mm 0.00 in0.0 mm 0.00 in0.0 mm
10:26 PM 3.8°F-15.7°C -1.3°F-18.5°C 79% 2.2 mph NNE3.5 kmh NNE 4.9 mph7.9 kmh 30.18 in1022.0 mb 0.00 in0.0 mm 0.00 in0.0 mm 0.00 in0.0 mm
10:31 PM 3.8°F-15.7°C -1.1°F-18.4°C 80% 3.6 mph 5.8 kmh 3.6 mph5.8 kmh 30.17 in1021.7 mb 0.00 in0.0 mm 0.00 in0.0 mm 0.00 in0.0 mm
10:36 PM 3.8°F-15.7°C -1.1°F-18.4°C 80% 3.6 mph 5.8 kmh 3.6 mph5.8 kmh 30.17 in1021.7 mb 0.00 in0.0 mm 0.00 in0.0 mm 0.00 in0.0 mm
10:41 PM 3.8°F-15.7°C -1.1°F-18.4°C 80% 3.6 mph 5.8 kmh 3.6 mph5.8 kmh 30.17 in1021.7 mb 0.00 in0.0 mm 0.00 in0.0 mm 0.00 in0.0 mm
10:46 PM 3.2°F-16.0°C -1.9°F-18.8°C 79% 3.5 mph N5.6 kmh N 3.6 mph5.8 kmh 30.17 in1021.7 mb 0.00 in0.0 mm 0.00 in0.0 mm 0.00 in0.0 mm
10:51 PM 3.2°F-16.0°C -1.6°F-18.7°C 80% 3.6 mph NNE5.8 kmh NNE 3.6 mph5.8 kmh 30.17 in1021.7 mb 0.00 in0.0 mm 0.00 in0.0 mm 0.00 in0.0 mm
10:56 PM 3.2°F-16.0°C -1.6°F-18.7°C 80% 3.6 mph NNE5.8 kmh NNE 3.6 mph5.8 kmh 30.17 in1021.7 mb 0.00 in0.0 mm 0.00 in0.0 mm 0.00 in0.0 mm
11:02 PM 3.2°F-16.0°C -1.6°F-18.7°C 80% 3.6 mph NNE5.8 kmh NNE 3.6 mph5.8 kmh 30.16 in1021.3 mb 0.00 in0.0 mm 0.00 in0.0 mm 0.00 in0.0 mm
11:06 PM 2.9°F-16.2°C -2.0°F-18.9°C 80% 2.9 mph NNE4.7 kmh NNE 3.6 mph5.8 kmh 30.16 in1021.3 mb 0.00 in0.0 mm 0.00 in0.0 mm 0.00 in0.0 mm
11:11 PM 2.7°F-16.3°C -2.2°F-19.0°C 80% 2.5 mph 4.0 kmh 3.6 mph5.8 kmh 30.16 in1021.3 mb 0.00 in0.0 mm 0.00 in0.0 mm 0.00 in0.0 mm
11:16 PM 2.5°F-16.4°C -2.6°F-19.2°C 79% 3.7 mph N6.0 kmh N 4.0 mph6.4 kmh 30.16 in1021.3 mb 0.00 in0.0 mm 0.00 in0.0 mm 0.00 in0.0 mm
11:21 PM 2.5°F-16.4°C -2.6°F-19.2°C 79% 3.5 mph 5.6 kmh 4.0 mph6.4 kmh 30.17 in1021.7 mb 0.00 in0.0 mm 0.00 in0.0 mm 0.00 in0.0 mm
11:26 PM 2.3°F-16.5°C -2.8°F-19.3°C 79% 4.6 mph 7.4 kmh 4.9 mph7.9 kmh 30.17 in1021.7 mb 0.00 in0.0 mm 0.00 in0.0 mm 0.00 in0.0 mm
11:31 PM 2.5°F-16.4°C -2.6°F-19.2°C 79% 3.8 mph NNE6.1 kmh NNE 4.9 mph7.9 kmh 30.16 in1021.3 mb 0.00 in0.0 mm 0.00 in0.0 mm 0.00 in0.0 mm
11:36 PM 2.3°F-16.5°C -2.8°F-19.3°C 79% 3.3 mph NNE5.3 kmh NNE 4.9 mph7.9 kmh 30.17 in1021.7 mb 0.00 in0.0 mm 0.00 in0.0 mm 0.00 in0.0 mm
11:41 PM 2.3°F-16.5°C -2.8°F-19.3°C 79% 3.1 mph NE5.0 kmh NE 4.9 mph7.9 kmh 30.16 in1021.3 mb 0.00 in0.0 mm 0.00 in0.0 mm 0.00 in0.0 mm
11:46 PM 2.3°F-16.5°C -2.8°F-19.3°C 79% 2.2 mph NNE3.5 kmh NNE 3.4 mph5.5 kmh 30.16 in1021.3 mb 0.00 in0.0 mm 0.00 in0.0 mm 0.00 in0.0 mm
11:51 PM 2.2°F-16.6°C -3.0°F-19.4°C 79% 1.6 mph NW2.6 kmh NW 3.4 mph5.5 kmh 30.16 in1021.3 mb 0.00 in0.0 mm 0.00 in0.0 mm 0.00 in0.0 mm
11:56 PM 2.0°F-16.7°C -3.1°F-19.5°C 79% 0.4 mph NNW0.6 kmh NNW 2.7 mph4.3 kmh 30.16 in1021.3 mb 0.00 in0.0 mm 0.00 in0.0 mm 0.00 in0.0 mm